• Join FlightAware (Why Join?)
  • Login
  • US Flag 
09:06PM EDT


 

Airport Tracker/Info


-or-


 

Live Flight TrackerFlight Track Log ✈ TCF3538 ✈ 10-May-2013 ✈ KATL - KDEN

Flight Track Log - Related Links

Times and Time Zones

All times are in EDT time to prevent confusion due to time zone crossing. See the TCF3538 flight status page for this flight to view local times or setup timezone preferences in your user account.

Time Position Orientation Groundspeed Altitude Reporting Facility
EDT Latitude Longitude Course Direction KTS MPH feet Rate Location/Type
08:00AM 33.6500 -84.4833 270° West 184 212 2,800  Level Atlanta TRACON
08:01AM 33.6667 -84.5500 287° West 246 283 4,800 2,640 Climbing Atlanta TRACON
08:02AM 33.6833 -84.6333 284° West 275 316 7,600 2,700 Climbing Atlanta TRACON
08:03AM 33.8001 -84.4591 270° West  Level FlightAware Approximate
08:04AM 33.8000 -84.5862 270° West  Level FlightAware Approximate
08:04AM 33.7103 -84.8331 279° West 292 336 12,900  Level Atlanta Center
08:05AM 33.8001 -84.7133 270° West  Level FlightAware Approximate
08:05AM 33.7242 -84.9356 279° West 313 360 15,300  Level Atlanta Center
08:06AM 33.8000 -84.8404 270° West  Level FlightAware Approximate
08:06AM 33.7422 -85.0431 281° West 322 371 17,700  Level Atlanta Center
08:07AM 33.7558 -85.1456 279° West 337 388 19,600 1,920 Climbing Atlanta Center
08:08AM 33.7736 -85.2583 281° West 342 394 21,600 1,860 Climbing Atlanta Center
08:09AM 33.7933 -85.3761 281° West 353 406 23,400 1,800 Climbing Atlanta Center
08:10AM 33.8150 -85.4939 283° West 359 413 25,200 1,800 Climbing Atlanta Center
08:11AM 33.8342 -85.6144 281° West 364 419 27,000 1,500 Climbing Atlanta Center
08:12AM 33.8681 -85.7350 289° West 370 426 28,300 1,200 Climbing Atlanta Center
08:13AM 33.9103 -85.8636 292° West 375 432 29,500 1,140 Climbing Atlanta Center
08:14AM 33.9439 -85.9819 289° West 375 432 30,600 960 Climbing Atlanta Center
08:15AM 33.9856 -86.1081 292° West 388 447 31,500 1,080 Climbing Atlanta Center
08:16AM 34.0211 -86.2294 289° West 388 447 32,800 1,140 Climbing Atlanta Center
08:17AM 34.0522 -86.3506 287° West 393 452 33,800 1,200 Climbing Atlanta Center
08:18AM 34.0875 -86.4717 289° West 388 447 35,200 1,020 Climbing Atlanta Center
08:19AM 34.1186 -86.5856 288° West 382 440 35,900 360 Climbing Atlanta Center
08:20AM 34.1517 -86.6994 289° West 372 428 36,000  Climbing Atlanta Center
08:21AM 34.1825 -86.8161 288° West 366 421 36,000  Level Atlanta Center
08:23AM 34.2500 -87.0606 289° West 372 428 36,000  Level Memphis Center
08:24AM 34.2822 -87.1822 288° West 372 428 36,000  Level Memphis Center
08:25AM 34.3142 -87.2917 289° West 363 418 36,000  Level Memphis Center
08:26AM 34.3483 -87.4114 289° West 363 418 36,000  Level Memphis Center
08:27AM 34.3803 -87.5286 288° West 363 418 36,000  Level Memphis Center
08:28AM 34.4122 -87.6483 288° West 363 418 36,000  Level Memphis Center
08:29AM 34.4439 -87.7631 289° West 363 418 36,000  Level Memphis Center
08:30AM 34.4736 -87.8856 286° West 363 418 36,000  Level Memphis Center
08:31AM 34.5114 -88.0131 290° West 368 423 36,000  Level Memphis Center
08:32AM 34.5386 -88.1308 286° West 368 423 36,000  Level Memphis Center
08:33AM 34.5700 -88.2436 289° West 373 429 36,000  Level Memphis Center
08:34AM 34.6011 -88.3614 288° West 379 436 36,000  Level Memphis Center
08:35AM 34.6322 -88.4792 288° West 379 436 36,000  Level Memphis Center
08:36AM 34.6672 -88.6047 289° West 366 421 36,000  Level Memphis Center
08:37AM 34.7086 -88.7225 293° West 366 421 36,000  Level Memphis Center
08:38AM 34.7456 -88.8381 291° West 366 421 36,000  Level Memphis Center
08:39AM 34.7844 -88.9564 292° West 366 421 36,000  Level Memphis Center
08:40AM 34.8233 -89.0744 292° West 366 421 36,000  Level Memphis Center
08:41AM 34.8619 -89.1928 292° West 371 427 36,000  Level Memphis Center
08:42AM 34.8964 -89.2986 292° West 371 427 36,000  Level Memphis Center
08:43AM 34.9369 -89.4197 292° West 371 427 36,000  Level Memphis Center
08:44AM 34.9775 -89.5386 293° West 376 433 36,000  Level Memphis Center
08:45AM 35.0158 -89.6597 291° West 376 433 36,000  Level Memphis Center
08:46AM 35.0603 -89.7964 292° West 391 450 36,000  Level Memphis Center
08:47AM 35.0964 -89.9181 290° West 391 450 36,000  Level Memphis Center
08:48AM 35.1300 -90.0269 291° West 391 450 36,000  Level Memphis Center
08:49AM 35.1700 -90.1514 291° West 391 450 36,000  Level Memphis Center
08:50AM 35.2075 -90.2758 290° West 391 450 36,000  Level Memphis Center
08:51AM 35.2453 -90.4003 290° West 391 450 36,000  Level Memphis Center
08:52AM 35.2847 -90.5275 291° West 396 456 36,000  Level Memphis Center
08:53AM 35.3242 -90.6522 291° West 396 456 36,000  Level Memphis Center
08:54AM 35.3633 -90.7822 290° West 396 456 36,000  Level Memphis Center
08:55AM 35.4025 -90.9097 291° West 396 456 36,000  Level Memphis Center
08:56AM 35.4436 -91.0375 292° West 402 463 36,000  Level Memphis Center
08:57AM 35.4844 -91.1781 290° West 402 463 36,000  Level Memphis Center
08:58AM 35.5233 -91.3058 291° West 407 468 36,000  Level Memphis Center
08:59AM 35.5639 -91.4317 292° West 402 463 36,000  Level Memphis Center
09:00AM 35.6044 -91.5622 291° West 402 463 36,000  Level Memphis Center
09:01AM 35.6386 -91.6853 289° West 402 463 36,000  Level Memphis Center
09:02AM 35.6767 -91.8164 290° West 402 463 36,000  Level Memphis Center
09:03AM 35.7128 -91.9422 289° West 402 463 36,000  Level Memphis Center
09:04AM 35.7508 -92.0683 290° West 402 463 36,000  Level Memphis Center
09:05AM 35.7886 -92.1994 290° West 402 463 36,000  Level Memphis Center
09:06AM 35.8261 -92.3258 290° West 402 463 36,000  Level Memphis Center
09:07AM 35.8636 -92.4550 290° West 402 463 36,000  Level Memphis Center
09:08AM 35.9011 -92.5839 290° West 407 468 36,000  Level Memphis Center
09:09AM 35.9383 -92.7156 289° West 407 468 36,000  Level Memphis Center
09:10AM 35.9756 -92.8450 290° West 407 468 36,000  Level Memphis Center
09:11AM 36.0122 -92.9769 289° West 407 468 36,000  Level Memphis Center
09:12AM 36.0492 -93.1092 289° West 407 468 36,000  Level Memphis Center
09:13AM 36.0881 -93.2336 291° West 407 468 36,000  Level Memphis Center
09:14AM 36.1225 -93.3633 288° West 400 460 36,000  Level Memphis Center
09:15AM 36.1569 -93.4906 289° West 400 460 36,000  Level Memphis Center
09:16AM 36.1953 -93.6206 290° West 400 460 36,000  Level Memphis Center
09:17AM 36.2214 -93.7375 286° West 400 460 36,000  Level Memphis Center
09:18AM 36.2572 -93.8675 289° West 400 460 36,000  Level Memphis Center
09:20AM 36.3278 -94.0986 291° West 394 453 36,000  Level Kansas City Center
09:21AM 36.3611 -94.2225 289° West 396 456 36,000  Level Kansas City Center
09:22AM 36.3953 -94.3519 288° West 395 455 36,000  Level Kansas City Center
09:23AM 36.4303 -94.4783 289° West 390 449 36,000  Level Kansas City Center
09:24AM 36.4717 -94.6300 289° West 386 444 36,000  Level Kansas City Center
09:25AM 36.5042 -94.7564 288° West 386 444 36,000  Level Kansas City Center
09:26AM 36.5378 -94.8819 288° West 384 442 36,000  Level Kansas City Center
09:27AM 36.5708 -95.0083 288° West 385 443 36,000  Level Kansas City Center
09:28AM 36.6014 -95.1236 288° West 385 443 36,000  Level Kansas City Center
09:29AM 36.6364 -95.2589 288° West 385 443 36,000  Level Kansas City Center
09:30AM 36.6700 -95.3847 288° West 386 444 36,000  Level Kansas City Center
09:31AM 36.7083 -95.5378 287° West 389 448 36,000  Level Kansas City Center
09:32AM 36.7431 -95.6669 289° West 394 453 36,000  Level Kansas City Center
09:33AM 36.7756 -95.7967 287° West 395 455 36,000  Level Kansas City Center
09:34AM 36.8094 -95.9289 288° West 397 457 36,000  Level Kansas City Center
09:35AM 36.8436 -96.0617 288° West 401 461 36,000  Level Kansas City Center
09:36AM 36.8775 -96.1950 288° West 404 465 36,000  Level Kansas City Center
09:37AM 36.9172 -96.3558 287° West 403 464 36,000 -540 Level Kansas City Center
09:39AM 36.9514 -96.4889 288° West 401 461 35,000 -1,020 Descending Kansas City Center
09:40AM 36.9847 -96.6208 288° West 399 459 34,000 -540 Descending Kansas City Center
09:41AM 37.0181 -96.7539 287° West 400 460 34,000  Level Kansas City Center
09:42AM 37.0486 -96.8744 288° West 403 464 34,000  Level Kansas City Center
09:43AM 37.0886 -97.0406 287° West 412 474 34,000  Level Kansas City Center
09:44AM 37.1211 -97.1753 287° West 409 471 34,000  Level Kansas City Center
09:45AM 37.1536 -97.3083 287° West 401 461 34,000  Level Kansas City Center
09:46AM 37.1858 -97.4422 287° West 401 461 34,000  Level Kansas City Center
09:47AM 37.2322 -97.5736 294° West 410 472 34,000  Level Kansas City Center
09:48AM 37.2836 -97.6981 297° West 403 464 34,000  Level Kansas City Center
09:49AM 37.3350 -97.8250 297° West 404 465 34,000  Level Kansas City Center
09:50AM 37.3878 -97.9528 297° West 407 468 34,000  Level Kansas City Center
09:51AM 37.4511 -98.1042 298° West 406 467 34,000  Level Kansas City Center
09:52AM 37.5033 -98.2328 297° West 408 470 34,000  Level Kansas City Center
09:53AM 37.5564 -98.3603 298° West 409 471 34,000  Level Kansas City Center
09:54AM 37.6083 -98.4878 297° West 408 470 34,000  Level Kansas City Center
09:55AM 37.6522 -98.6192 293° West 410 472 34,000  Level Kansas City Center
09:56AM 37.6717 -98.7586 280° West 405 466 34,000  Level Kansas City Center
09:57AM 37.6894 -98.8961 279° West 399 459 34,000  Level Kansas City Center
09:58AM 37.7078 -99.0353 279° West 400 460 34,000  Level Kansas City Center
09:59AM 37.7300 -99.2033 280° West 403 464 34,000  Level Kansas City Center
10:00AM 37.7489 -99.3433 280° West 404 465 34,000  Level Kansas City Center
10:01AM 37.7686 -99.4864 280° West 404 465 34,000  Level Kansas City Center
10:02AM 37.7867 -99.6208 280° West 406 467 34,000  Level Kansas City Center
10:03AM 37.8056 -99.7778 279° West 405 466 34,000  Level Kansas City Center
10:04AM 37.8219 -99.9122 279° West 406 467 34,000  Level Kansas City Center
10:05AM 37.8414 -100.0678 279° West 403 464 34,000  Level Kansas City Center
10:06AM 37.8572 -100.2033 278° West 405 466 34,000  Level Kansas City Center
10:07AM 37.8764 -100.3603 279° West 406 467 34,000  Level Kansas City Center
10:08AM 37.8914 -100.4942 278° West 405 466 34,000  Level Kansas City Center
10:09AM 37.9103 -100.6503 279° West 404 465 34,000  Level Kansas City Center
10:10AM 37.9406 -100.7811 286° West 416 479 34,000  Level Kansas City Center
10:12AM 37.9961 -100.9250 296° West 410 472 34,000  Level Kansas City Center
10:12AM 38.0114 -100.9664 295° West 412 474 34,000  Level Denver Center
10:13AM 38.0589 -101.0917 296° West 413 475 34,000  Level Denver Center
10:14AM 38.1153 -101.2389 296° West 415 478 34,000  Level Denver Center
10:15AM 38.1636 -101.3644 296° West 415 478 34,000  Level Denver Center
10:16AM 38.2247 -101.5072 299° West 414 476 34,000  Level Denver Center
10:17AM 38.2836 -101.6250 303° West 413 475 34,000  Level Denver Center
10:18AM 38.3433 -101.7436 303° West 417 480 34,000  Level Denver Center
10:19AM 38.4122 -101.8825 302° West 414 476 34,000  Level Denver Center
10:20AM 38.4703 -102.0025 302° West 416 479 34,000 -300 Level Denver Center
10:21AM 38.5403 -102.1428 303° West 418 481 33,400 -780 Descending Denver Center
10:22AM 38.5994 -102.2644 302° West 420 483 32,500 -720 Descending Denver Center
10:23AM 38.6700 -102.4075 302° West 425 489 32,000 -300 Descending Denver Center
10:24AM 38.7306 -102.5303 302° West 426 490 32,000  Level Denver Center
10:25AM 38.7889 -102.6547 301° West 426 490 32,000  Level Denver Center
10:26AM 38.8531 -102.7894 301° West 425 489 32,000  Level Denver Center
10:27AM 38.9228 -102.9331 302° West 425 489 32,000  Level Denver Center
10:28AM 38.9817 -103.0564 302° West 425 489 32,000 -300 Level Denver Center
10:29AM 39.0519 -103.2033 302° West 430 495 31,500 -1,320 Descending Denver Center
10:30AM 39.1136 -103.3314 302° West 439 505 29,300 -2,280 Descending Denver Center
10:31AM 39.1803 -103.4733 301° West 418 481 26,900 -2,220 Descending Denver Center
10:32AM 39.2350 -103.5908 301° West 404 465 24,800 -2,160 Descending Denver Center
10:33AM 39.2978 -103.7244 301° West 392 451 22,500 -2,040 Descending Denver Center
10:34AM 39.3489 -103.8361 301° West 384 442 20,600 -2,280 Descending Denver Center
10:35AM 39.3983 -103.9556 298° West 370 426 17,800 -2,400 Descending Denver Center
10:37AM 39.4025 -104.0836 272° West 360 414 15,700 -1,620 Descending Denver Center
10:38AM 39.4072 -104.2092 273° West 328 377 14,500 -1,200 Descending Denver Center
10:39AM 39.4122 -104.3164 273° West 305 351 13,300 -1,380 Descending Denver Center
10:40AM 39.4500 -104.4158 296° West 291 335 11,700 -1,500 Descending Denver Center
10:41AM 39.5089 -104.4811 319° Northwest 278 320 10,200 -1,380 Descending Denver Center
10:42AM 39.5781 -104.5411 326° Northwest 279 321 8,900 -1,020 Descending Denver Center
10:43AM 39.6417 -104.5756 337° Northwest 252 290 8,200 -660 Descending Denver Center
10:44AM 39.6969 -104.6075 336° Northwest 224 258 7,600 -660 Descending Denver Center
10:45AM 39.7497 -104.6386 336° Northwest 199 229 6,900 -720 Descending Denver Center